Time;durP1;ratioP1;P1;durP2;ratioP2;P2;SDS_P1;SDS_P2;PMS_P1;PMS_P2;Temp;Humidity;BMP_temperature;BMP_pressure;BME280_temperature;BME280_humidity;BME280_pressure;Samples;Min_cycle;Max_cycle;Signal;HPM_P1;HPM_P2
2023/08/22 00:01:29;;;;;;;;;;;;;;;22.78;44.85;102012.97;4825591;29;125001;-75
2023/08/22 00:03:57;;;;;;;;;;;;;;;22.78;44.85;102012.97;4821767;29;124107;-76
2023/08/22 00:06:24;;;;;;;;;;;;;;;22.78;44.90;102012.97;4823290;29;119610;-75
2023/08/22 00:08:51;;;;;;;;;;;;;;;22.79;45.00;102003.88;4847368;29;118550;-75
2023/08/22 00:11:18;;;;;;;;;;;;;;;22.79;44.96;101998.47;4825701;29;123625;-75
2023/08/22 00:13:45;;;;;;;;;;;;;;;22.79;45.00;101998.47;4832120;29;124260;-75
2023/08/22 00:16:12;;;;;;;;;;;;;;;22.77;45.05;102000.44;4829141;29;119909;-75
2023/08/22 00:18:39;;;;;;;;;;;;;;;22.77;44.96;101995.03;4849878;29;119195;-75
2023/08/22 00:21:06;;;;;;;;;;;;;;;22.74;44.98;102007.78;4819488;29;124509;-75
2023/08/22 00:23:33;;;;;;;;;;;;;;;22.71;44.98;101997.22;4828362;29;124366;-75
2023/08/22 00:26:00;;;;;;;;;;;;;;;22.68;45.06;101991.22;4832729;29;118860;-75
2023/08/22 00:28:27;;;;;;;;;;;;;;;22.67;45.14;101995.75;4830273;29;118659;-76
2023/08/22 00:30:54;;;;;;;;;;;;;;;22.66;45.09;101999.44;4846709;28;124075;-75
2023/08/22 00:33:21;;;;;;;;;;;;;;;22.65;45.15;101997.72;4846855;29;124435;-76
2023/08/22 00:35:48;;;;;;;;;;;;;;;22.64;45.33;102001.41;4843263;29;120430;-75
2023/08/22 00:38:15;;;;;;;;;;;;;;;22.62;45.21;102006.06;4828413;29;120424;-75
2023/08/22 00:40:42;;;;;;;;;;;;;;;22.61;45.21;102001.63;4849464;28;123196;-75
2023/08/22 00:43:09;;;;;;;;;;;;;;;22.60;45.24;102005.28;4821137;29;123893;-75
2023/08/22 00:45:39;;;;;;;;;;;;;;;22.57;45.28;101989.34;4833995;29;120544;-75
2023/08/22 00:48:07;;;;;;;;;;;;;;;22.53;45.25;101985.19;4829485;29;119813;-75
2023/08/22 00:50:34;;;;;;;;;;;;;;;22.51;45.40;101981.75;4832976;29;123260;-75
2023/08/22 00:53:01;;;;;;;;;;;;;;;22.50;45.41;101988.09;4833874;29;122973;-75
2023/08/22 00:55:29;;;;;;;;;;;;;;;22.50;45.48;101982.72;4845203;29;119591;-75
2023/08/22 00:57:56;;;;;;;;;;;;;;;22.49;45.44;101976.47;4821827;29;117182;-75
2023/08/22 01:00:23;;;;;;;;;;;;;;;22.50;45.47;101977.31;4826988;29;124010;-75
2023/08/22 01:02:49;;;;;;;;;;;;;;;22.49;45.30;101976.47;4830663;29;123582;-75
2023/08/22 01:05:17;;;;;;;;;;;;;;;22.50;45.50;101966.50;4830380;29;119267;-75
2023/08/22 01:07:49;;;;;;;;;;;;;;;22.50;45.51;101961.09;4832558;29;118688;-75
2023/08/22 01:10:16;;;;;;;;;;;;;;;22.49;45.50;101962.06;4830951;29;124813;-75
2023/08/22 01:13:02;;;;;;;;;;;;;;;22.50;45.56;101963.81;4825390;29;124539;-75
2023/08/22 01:15:32;;;;;;;;;;;;;;;22.49;45.57;101964.78;4836918;29;118668;-75
2023/08/22 01:18:04;;;;;;;;;;;;;;;22.49;45.63;101971.06;4845545;28;119473;-75
2023/08/22 01:20:31;;;;;;;;;;;;;;;22.49;45.62;101970.16;4823300;29;124228;-75
2023/08/22 01:22:58;;;;;;;;;;;;;;;22.48;45.57;101973.88;4827061;29;124572;-75
2023/08/22 01:25:27;;;;;;;;;;;;;;;22.45;45.60;101963.28;4828670;29;121077;-75
2023/08/22 01:28:00;;;;;;;;;;;;;;;22.45;45.78;101968.69;4836197;29;119990;-75
2023/08/22 01:30:47;;;;;;;;;;;;;;;22.45;45.69;101968.69;4834776;29;126506;-75
2023/08/22 01:33:18;;;;;;;;;;;;;;;22.41;45.77;101972.63;4832029;29;124528;-75
2023/08/22 01:35:47;;;;;;;;;;;;;;;22.41;45.72;101967.22;4822277;29;120142;-75
2023/08/22 01:38:14;;;;;;;;;;;;;;;22.39;45.79;101959.22;4831597;29;118915;-75
2023/08/22 01:40:41;;;;;;;;;;;;;;;22.37;45.77;101961.19;4834151;29;123812;-75
2023/08/22 01:43:08;;;;;;;;;;;;;;;22.33;45.83;101960.56;4834651;29;124650;-75
2023/08/22 01:45:35;;;;;;;;;;;;;;;22.30;45.80;101950.03;4838288;29;117984;-75
2023/08/22 01:48:02;;;;;;;;;;;;;;;22.27;45.90;101955.66;4831600;29;119273;-75
2023/08/22 01:50:29;;;;;;;;;;;;;;;22.26;45.92;101953.91;4827016;29;124194;-75
2023/08/22 01:52:57;;;;;;;;;;;;;;;22.24;45.99;101953.16;4847099;29;123543;-75
2023/08/22 01:55:24;;;;;;;;;;;;;;;22.21;45.95;101949.81;4827822;29;119602;-75
2023/08/22 01:57:51;;;;;;;;;;;;;;;22.21;46.07;101955.22;4846710;29;118454;-75
2023/08/22 02:00:18;;;;;;;;;;;;;;;22.19;45.99;101952.66;4848055;28;123290;-75
2023/08/22 02:02:45;;;;;;;;;;;;;;;22.19;46.09;101952.66;4828364;29;125043;-75
2023/08/22 02:05:12;;;;;;;;;;;;;;;22.19;46.01;101952.66;4829883;29;118785;-75
2023/08/22 02:07:41;;;;;;;;;;;;;;;22.17;46.17;101960.00;4831414;29;120435;-75
2023/08/22 02:10:08;;;;;;;;;;;;;;;22.16;46.04;101950.19;4830857;29;124453;-75
2023/08/22 02:12:35;;;;;;;;;;;;;;;22.14;46.13;101954.84;4846910;29;123087;-75
2023/08/22 02:15:03;;;;;;;;;;;;;;;22.13;46.09;101963.91;4829385;29;120026;-75
2023/08/22 02:17:30;;;;;;;;;;;;;;;22.11;46.16;101960.47;4819795;29;118872;-75
2023/08/22 02:19:57;;;;;;;;;;;;;;;22.09;46.21;101957.03;4812542;29;123715;-75
2023/08/22 02:22:23;;;;;;;;;;;;;;;22.07;46.16;101948.19;4834209;29;123949;-75
2023/08/22 02:24:50;;;;;;;;;;;;;;;22.06;46.11;101951.88;4825804;29;119403;-75
2023/08/22 02:27:17;;;;;;;;;;;;;;;22.05;46.19;101942.06;4824700;29;120207;-75
2023/08/22 02:29:44;;;;;;;;;;;;;;;22.03;46.23;101941.31;4829025;29;124822;-75
2023/08/22 02:32:11;;;;;;;;;;;;;;;22.01;46.41;101943.28;4822649;29;124163;-75
2023/08/22 02:34:40;;;;;;;;;;;;;;;22.00;46.24;101944.22;4820282;29;119833;-75
2023/08/22 02:37:07;;;;;;;;;;;;;;;21.97;46.32;101938.09;4829643;29;118858;-75
2023/08/22 02:39:34;;;;;;;;;;;;;;;21.96;46.33;101941.78;4829160;29;124593;-75
2023/08/22 02:42:01;;;;;;;;;;;;;;;21.96;46.42;101936.38;4828466;29;124188;-75
2023/08/22 02:44:28;;;;;;;;;;;;;;;21.95;46.35;101945.44;4821873;29;119648;-75
2023/08/22 02:46:55;;;;;;;;;;;;;;;21.93;46.43;101936.63;4832547;29;118637;-75
2023/08/22 02:49:22;;;;;;;;;;;;;;;21.94;46.28;101932.06;4820740;29;124694;-75
2023/08/22 02:51:49;;;;;;;;;;;;;;;21.92;46.37;101934.88;4824647;29;124564;-76
2023/08/22 02:54:16;;;;;;;;;;;;;;;21.90;46.40;101935.97;4821487;29;119359;-75
2023/08/22 02:56:43;;;;;;;;;;;;;;;21.88;46.45;101928.00;4820623;29;118546;-75
2023/08/22 02:59:09;;;;;;;;;;;;;;;21.86;46.46;101935.34;4822705;29;124564;-75
2023/08/22 03:01:36;;;;;;;;;;;;;;;21.85;46.46;101932.75;4828611;29;124743;-76
2023/08/22 03:04:04;;;;;;;;;;;;;;;21.84;46.55;101931.91;4828878;29;121435;-75
2023/08/22 03:06:31;;;;;;;;;;;;;;;21.84;46.46;101937.31;4846414;29;118752;-75
2023/08/22 03:08:59;;;;;;;;;;;;;;;21.83;46.53;101930.22;4830874;29;124859;-75
2023/08/22 03:11:27;;;;;;;;;;;;;;;21.83;46.53;101932.91;4846333;29;125308;-75
2023/08/22 03:13:55;;;;;;;;;;;;;;;21.81;46.58;101932.13;4826226;29;119852;-75
2023/08/22 03:16:22;;;;;;;;;;;;;;;21.80;46.54;101930.44;4831738;29;117489;-75
2023/08/22 03:18:49;;;;;;;;;;;;;;;21.79;46.56;101928.69;4831763;28;123225;-75
2023/08/22 03:21:16;;;;;;;;;;;;;;;21.78;46.62;101929.69;4825111;29;125336;-75
2023/08/22 03:23:44;;;;;;;;;;;;;;;21.77;46.66;101927.94;4845877;29;118251;-75
2023/08/22 03:26:14;;;;;;;;;;;;;;;21.76;46.63;101923.56;4830775;28;119433;-75
2023/08/22 03:28:42;;;;;;;;;;;;;;;21.76;46.74;101923.56;4830265;29;123929;-75
2023/08/22 03:31:11;;;;;;;;;;;;;;;21.74;46.59;101930.91;4846327;29;97302;-75
2023/08/22 03:33:38;;;;;;;;;;;;;;;21.71;46.73;101915.78;4847570;29;119030;-75
2023/08/22 03:36:08;;;;;;;;;;;;;;;21.70;46.75;101918.59;4830847;29;119344;-75
2023/08/22 03:38:35;;;;;;;;;;;;;;;21.69;46.71;101916.88;4827839;29;123392;-75
2023/08/22 03:41:02;;;;;;;;;;;;;;;21.68;46.81;101925.94;4846343;28;123149;-75
2023/08/22 03:43:30;;;;;;;;;;;;;;;21.66;46.83;101922.50;4826317;29;120151;-75
2023/08/22 03:45:56;;;;;;;;;;;;;;;21.66;46.75;101928.78;4833604;29;118052;-75
2023/08/22 03:48:24;;;;;;;;;;;;;;;21.64;46.85;101925.31;4822227;29;124732;-75
2023/08/22 03:50:52;;;;;;;;;;;;;;;21.63;46.92;101922.75;4841506;29;123050;-75
2023/08/22 03:53:19;;;;;;;;;;;;;;;21.62;47.01;101923.72;4821312;29;120248;-75
2023/08/22 03:55:46;;;;;;;;;;;;;;;21.61;46.87;101919.31;4829177;29;119096;-76
2023/08/22 03:58:13;;;;;;;;;;;;;;;21.58;46.83;101915.00;4827405;29;123258;-75
2023/08/22 04:00:40;;;;;;;;;;;;;;;21.54;46.92;101919.75;4845605;28;122666;-76
2023/08/22 04:03:07;;;;;;;;;;;;;;;21.52;47.03;101916.31;4845482;29;119779;-76
2023/08/22 04:05:34;;;;;;;;;;;;;;;21.50;46.98;101918.25;4841020;29;118272;-76
2023/08/22 04:08:01;;;;;;;;;;;;;;;21.47;47.01;101910.41;4830032;29;124716;-75
2023/08/22 04:10:28;;;;;;;;;;;;;;;21.45;47.07;101923.13;4831295;29;124107;-76
2023/08/22 04:12:55;;;;;;;;;;;;;;;21.45;47.07;101919.56;4834186;29;119433;-75
2023/08/22 04:15:22;;;;;;;;;;;;;;;21.44;47.03;101921.41;4845037;29;117096;-75
2023/08/22 04:17:49;;;;;;;;;;;;;;;21.43;47.17;101922.34;4807812;29;123150;-76
2023/08/22 04:20:17;;;;;;;;;;;;;;;21.42;47.11;101920.66;4840703;29;124876;-75
2023/08/22 04:22:44;;;;;;;;;;;;;;;21.40;47.18;101917.22;4831032;29;119139;-76
2023/08/22 04:25:12;;;;;;;;;;;;;;;21.38;47.16;101914.63;4825413;29;118339;-75
2023/08/22 04:27:40;;;;;;;;;;;;;;;21.37;47.24;101912.88;4831766;29;124137;-76
2023/08/22 04:30:10;;;;;;;;;;;;;;;21.35;47.16;101914.84;4832451;29;123075;-75
2023/08/22 04:32:37;;;;;;;;;;;;;;;21.34;47.25;101917.63;4846820;29;120384;-75
2023/08/22 04:35:06;;;;;;;;;;;;;;;21.33;47.20;101915.94;4829891;29;120548;-75
2023/08/22 04:37:37;;;;;;;;;;;;;;;21.31;47.25;101917.88;4823797;29;125910;-75
2023/08/22 04:40:04;;;;;;;;;;;;;;;21.29;47.31;101919.84;4825674;29;124337;-75
2023/08/22 04:42:45;;;;;;;;;;;;;;;21.27;47.21;101927.16;4828831;29;120185;-76
2023/08/22 04:45:13;;;;;;;;;;;;;;;21.27;47.43;101916.38;4828855;29;119782;-76
2023/08/22 04:47:40;;;;;;;;;;;;;;;21.26;47.36;101920.03;4828410;29;123597;-75
2023/08/22 04:50:09;;;;;;;;;;;;;;;21.23;47.38;101914.88;4848545;29;123197;-75
2023/08/22 04:52:36;;;;;;;;;;;;;;;21.19;47.41;101915.09;4829092;29;117091;-76
2023/08/22 04:55:04;;;;;;;;;;;;;;;21.18;47.55;101913.38;4829253;29;118658;-76
2023/08/22 04:57:32;;;;;;;;;;;;;;;21.16;47.46;101915.31;4833183;29;123533;-76
2023/08/22 04:59:59;;;;;;;;;;;;;;;21.15;47.49;101921.69;4832790;29;123329;-75
2023/08/22 05:02:28;;;;;;;;;;;;;;;21.14;47.59;101916.41;4827367;29;119068;-75
2023/08/22 05:04:55;;;;;;;;;;;;;;;21.12;47.63;101913.81;4832759;29;118111;-75
2023/08/22 05:07:22;;;;;;;;;;;;;;;21.13;47.59;101922.75;4844906;29;123925;-76
2023/08/22 05:09:49;;;;;;;;;;;;;;;21.13;47.59;101925.47;4831189;29;125475;-76
2023/08/22 05:12:16;;;;;;;;;;;;;;;21.12;47.66;101919.22;4824545;29;120217;-75
2023/08/22 05:14:43;;;;;;;;;;;;;;;21.12;47.67;101919.22;4843604;29;118245;-76
2023/08/22 05:17:10;;;;;;;;;;;;;;;21.13;47.71;101920.06;4821023;29;124420;-75
2023/08/22 05:19:39;;;;;;;;;;;;;;;21.13;47.72;101920.91;4817428;29;125261;-75
2023/08/22 05:22:08;;;;;;;;;;;;;;;21.14;47.73;101928.03;4827414;29;119570;-75
2023/08/22 05:24:35;;;;;;;;;;;;;;;21.16;47.74;101920.72;4833230;29;119510;-76
2023/08/22 05:27:02;;;;;;;;;;;;;;;21.17;47.76;101922.44;4845607;29;123965;-76
2023/08/22 05:29:29;;;;;;;;;;;;;;;21.19;47.74;101925.88;4833080;29;124055;-76
2023/08/22 05:31:56;;;;;;;;;;;;;;;21.22;47.88;101929.31;4829122;29;119429;-75
2023/08/22 05:34:23;;;;;;;;;;;;;;;21.23;47.84;101931.91;4832975;28;121446;-75
2023/08/22 05:36:50;;;;;;;;;;;;;;;21.25;47.88;101923.69;4832223;29;124694;-76
2023/08/22 05:39:17;;;;;;;;;;;;;;;21.28;48.00;101931.56;4839734;28;125325;-75
2023/08/22 05:41:44;;;;;;;;;;;;;;;21.32;47.92;101935.75;4830739;29;118598;-75
2023/08/22 05:44:12;;;;;;;;;;;;;;;21.35;47.99;101933.69;4848561;29;118801;-75
2023/08/22 05:46:39;;;;;;;;;;;;;;;21.39;48.04;101931.63;4826323;29;124483;-75
2023/08/22 05:49:08;;;;;;;;;;;;;;;21.43;48.03;101933.13;4832744;29;125470;-75
2023/08/22 05:51:37;;;;;;;;;;;;;;;21.47;48.02;101929.25;4830722;29;120228;-75
2023/08/22 05:54:04;;;;;;;;;;;;;;;21.51;48.14;101925.38;4847147;29;119928;-75
2023/08/22 05:56:31;;;;;;;;;;;;;;;21.57;48.05;101927.63;4823570;29;125683;-74
2023/08/22 05:58:58;;;;;;;;;;;;;;;21.63;48.09;101933.53;4815172;29;123301;-75
2023/08/22 06:01:25;;;;;;;;;;;;;;;21.69;48.10;101933.06;4845023;28;118537;-75
2023/08/22 06:03:52;;;;;;;;;;;;;;;21.72;48.09;101932.84;4825396;29;118932;-75
2023/08/22 06:06:19;;;;;;;;;;;;;;;21.78;48.07;101943.16;4828126;29;124141;-75
2023/08/22 06:08:46;;;;;;;;;;;;;;;21.83;48.13;101935.59;4829954;29;123540;-75
2023/08/22 06:11:13;;;;;;;;;;;;;;;21.88;48.25;101944.19;4822034;29;120515;-75
2023/08/22 06:13:41;;;;;;;;;;;;;;;21.94;48.24;101943.75;4825894;29;117745;-75
2023/08/22 06:16:08;;;;;;;;;;;;;;;22.00;48.22;101947.81;4843727;29;124754;-75
2023/08/22 06:18:35;;;;;;;;;;;;;;;22.07;48.28;101949.03;4828296;29;123378;-75
2023/08/22 06:21:02;;;;;;;;;;;;;;;22.14;48.24;101954.84;4830541;29;120162;-75
2023/08/22 06:23:29;;;;;;;;;;;;;;;22.22;48.24;101952.41;4845493;28;118813;-75
2023/08/22 06:25:56;;;;;;;;;;;;;;;22.28;48.22;101952.00;4830613;29;123247;-75
2023/08/22 06:28:23;;;;;;;;;;;;;;;22.35;48.31;101946.97;4828600;29;124643;-75
2023/08/22 06:30:50;;;;;;;;;;;;;;;22.41;48.28;101942.91;4829219;29;119500;-75
2023/08/22 06:33:17;;;;;;;;;;;;;;;22.49;48.22;101948.56;4824409;29;118423;-74
2023/08/22 06:35:47;;;;;;;;;;;;;;;22.57;48.25;101951.56;4823626;29;122954;-75
2023/08/22 06:38:14;;;;;;;;;;;;;;;22.65;48.29;101943.69;4833607;29;123911;-76
2023/08/22 06:40:42;;;;;;;;;;;;;;;22.76;48.42;101939.31;4831308;29;119106;-74
2023/08/22 06:43:09;;;;;;;;;;;;;;;22.86;48.42;101940.28;4846593;29;117799;-75
2023/08/22 06:45:37;;;;;;;;;;;;;;;22.98;48.51;101944.72;4811692;29;123593;-74
2023/08/22 06:48:04;;;;;;;;;;;;;;;23.10;48.57;101938.34;4830281;29;122158;-74
2023/08/22 06:50:32;;;;;;;;;;;;;;;23.23;48.60;101937.34;4830991;29;119146;-74
2023/08/22 06:53:06;;;;;;;;;;;;;;;23.36;48.54;101938.06;4835170;29;119160;-74
2023/08/22 06:55:33;;;;;;;;;;;;;;;23.48;48.32;101942.44;4829858;29;124518;-74
2023/08/22 06:58:00;;;;;;;;;;;;;;;23.62;48.43;101948.56;4828081;29;124591;-75
2023/08/22 07:00:26;;;;;;;;;;;;;;;23.75;48.57;101949.25;4815807;29;118663;-75
2023/08/22 07:02:53;;;;;;;;;;;;;;;23.89;48.40;101951.69;4821831;29;118763;-74
2023/08/22 07:05:21;;;;;;;;;;;;;;;24.05;48.45;101950.41;4819553;29;124374;-75
2023/08/22 07:07:48;;;;;;;;;;;;;;;24.22;48.65;101952.56;4824449;29;124126;-75
2023/08/22 07:10:15;;;;;;;;;;;;;;;24.39;48.45;101959.22;4826140;29;120666;-75
2023/08/22 07:12:44;;;;;;;;;;;;;;;24.58;48.70;101958.50;4814318;29;119002;-75
2023/08/22 07:15:11;;;;;;;;;;;;;;;24.78;48.61;101964.03;4840525;29;123358;-75
2023/08/22 07:17:38;;;;;;;;;;;;;;;24.98;48.63;101970.41;4828075;29;123390;-75
2023/08/22 07:20:11;;;;;;;;;;;;;;;25.14;48.50;101964.47;4817295;29;119261;-75
2023/08/22 07:22:38;;;;;;;;;;;;;;;25.29;48.15;101963.13;4830390;29;118721;-75
2023/08/22 07:25:06;;;;;;;;;;;;;;;25.42;48.59;101961.00;4830812;29;124353;-75
2023/08/22 07:27:33;;;;;;;;;;;;;;;25.55;48.21;101965.34;4830293;29;124758;-75
2023/08/22 07:29:59;;;;;;;;;;;;;;;25.67;48.05;101961.47;4820931;29;119452;-75
2023/08/22 07:32:27;;;;;;;;;;;;;;;25.79;48.14;101971.22;4831830;29;119169;-75
2023/08/22 07:34:54;;;;;;;;;;;;;;;25.86;48.09;101981.50;4829999;29;124157;-76
2023/08/22 07:37:22;;;;;;;;;;;;;;;25.93;47.89;101966.41;4829937;29;123990;-76
2023/08/22 07:39:49;;;;;;;;;;;;;;;26.00;48.04;101978.41;4821095;29;120036;-76
2023/08/22 07:42:16;;;;;;;;;;;;;;;26.10;48.00;101973.81;4825320;29;118688;-77
2023/08/22 07:44:43;;;;;;;;;;;;;;;26.23;48.10;101977.09;4829725;29;123933;-77
2023/08/22 07:47:10;;;;;;;;;;;;;;;26.36;47.78;101973.25;4821663;29;123793;-76
2023/08/22 07:49:37;;;;;;;;;;;;;;;26.46;47.72;101967.78;4822279;29;121347;-77
2023/08/22 07:52:04;;;;;;;;;;;;;;;26.53;47.55;101964.34;4830106;29;118439;-76
2023/08/22 07:54:31;;;;;;;;;;;;;;;26.57;47.81;101976.63;4826479;29;124669;-75
2023/08/22 07:56:58;;;;;;;;;;;;;;;26.64;47.45;101978.81;4834478;29;122841;-76
2023/08/22 07:59:44;;;;;;;;;;;;;;;26.73;47.55;101975.19;4814809;29;121071;-74
2023/08/22 08:02:11;;;;;;;;;;;;;;;26.81;47.69;101978.03;4826515;29;120705;-75
2023/08/22 08:04:38;;;;;;;;;;;;;;;26.86;47.55;101981.16;4830001;29;124545;-75
2023/08/22 08:07:05;;;;;;;;;;;;;;;26.88;47.45;101979.16;4830117;29;124247;-75
2023/08/22 08:09:33;;;;;;;;;;;;;;;26.91;47.12;101973.41;4827957;29;119438;-76
2023/08/22 08:12:03;;;;;;;;;;;;;;;26.92;47.06;101980.56;4825928;29;118382;-76
2023/08/22 08:14:30;;;;;;;;;;;;;;;26.93;47.14;101976.81;4826024;29;123321;-77
2023/08/22 08:16:57;;;;;;;;;;;;;;;26.94;47.35;101973.13;4831246;29;124653;-76
2023/08/22 08:19:24;;;;;;;;;;;;;;;26.97;47.12;101983.72;4842510;29;118757;-76
2023/08/22 08:21:53;;;;;;;;;;;;;;;27.03;47.29;101997.69;4821694;29;119064;-76
2023/08/22 08:24:21;;;;;;;;;;;;;;;27.10;47.38;101993.38;4827401;29;124294;-76
2023/08/22 08:26:48;;;;;;;;;;;;;;;27.15;47.21;101993.78;4826730;29;124312;-76
2023/08/22 08:29:17;;;;;;;;;;;;;;;27.18;46.83;101990.75;4833511;29;118942;-76
2023/08/22 08:31:44;;;;;;;;;;;;;;;27.18;46.83;101990.75;4826712;29;118142;-76
2023/08/22 08:34:11;;;;;;;;;;;;;;;27.19;47.11;101997.91;4832725;29;124146;-76
2023/08/22 08:36:38;;;;;;;;;;;;;;;27.21;46.93;102001.34;4824660;29;123438;-76
2023/08/22 08:39:05;;;;;;;;;;;;;;;27.23;47.06;101999.31;4831461;29;119013;-75
2023/08/22 08:41:33;;;;;;;;;;;;;;;27.24;47.02;101995.59;4832369;29;119964;-76
2023/08/22 08:44:01;;;;;;;;;;;;;;;27.25;47.02;102002.78;4834149;29;124579;-76
2023/08/22 08:46:29;;;;;;;;;;;;;;;27.27;46.72;101999.91;4825037;29;124847;-78
2023/08/22 08:48:57;;;;;;;;;;;;;;;27.28;46.97;102002.50;4825192;29;120864;-77
2023/08/22 08:51:24;;;;;;;;;;;;;;;27.30;46.95;101995.03;4818968;29;119198;-79
2023/08/22 08:53:53;;;;;;;;;;;;;;;27.31;46.81;102007.63;4846072;28;122726;-78
2023/08/22 08:56:20;;;;;;;;;;;;;;;27.33;46.99;102000.19;4827697;29;123511;-77
2023/08/22 08:58:50;;;;;;;;;;;;;;;27.36;46.68;101997.13;4840698;29;119365;-78
2023/08/22 09:01:18;;;;;;;;;;;;;;;27.41;46.85;101995.81;4830151;29;118597;-77
2023/08/22 09:03:46;;;;;;;;;;;;;;;27.48;46.90;101992.38;4830747;29;125035;-78
2023/08/22 09:06:13;;;;;;;;;;;;;;;27.53;46.99;101989.19;4816005;29;125085;-78
2023/08/22 09:09:00;;;;;;;;;;;;;;;27.56;46.73;101995.16;4819773;29;119019;-77
2023/08/22 09:11:27;;;;;;;;;;;;;;;27.62;46.69;101999.16;4834212;29;118984;-77
2023/08/22 09:13:55;;;;;;;;;;;;;;;27.67;47.00;101996.84;4828870;29;125244;-75
2023/08/22 09:16:24;;;;;;;;;;;;;;;27.73;46.65;101996.22;4828759;29;124009;-77
2023/08/22 09:18:51;;;;;;;;;;;;;;;27.75;46.76;101988.75;4826719;29;119645;-77
2023/08/22 09:21:18;;;;;;;;;;;;;;;27.76;46.53;101985.03;4820428;29;118636;-76
2023/08/22 09:23:49;;;;;;;;;;;;;;;27.79;46.81;101988.44;4845815;29;125669;-77
2023/08/22 09:26:22;;;;;;;;;;;;;;;27.85;46.82;101987.81;4820983;29;124987;-78
2023/08/22 09:28:49;;;;;;;;;;;;;;;27.91;46.69;101992.66;4820538;29;119530;-77
2023/08/22 09:31:23;;;;;;;;;;;;;;;27.95;46.67;101996.78;4821276;29;118685;-77
2023/08/22 09:33:50;;;;;;;;;;;;;;;28.01;46.72;101992.59;4825902;29;124173;-77
2023/08/22 09:36:21;;;;;;;;;;;;;;;28.06;46.84;101988.38;4823909;29;124086;-77
2023/08/22 09:38:55;;;;;;;;;;;;;;;28.12;46.71;101979.59;4823389;29;120776;-76
2023/08/22 09:41:25;;;;;;;;;;;;;;;28.18;46.62;101988.13;4825536;29;120216;-77
2023/08/22 09:44:00;;;;;;;;;;;;;;;28.26;46.70;101985.50;4829699;29;124897;-77
2023/08/22 09:46:29;;;;;;;;;;;;;;;28.32;46.60;101985.72;4825724;29;124336;-77
2023/08/22 09:48:56;;;;;;;;;;;;;;;28.41;46.60;101989.38;4826114;29;119734;-77
2023/08/22 09:51:24;;;;;;;;;;;;;;;28.50;46.39;101988.41;4822080;29;118605;-77
2023/08/22 09:53:52;;;;;;;;;;;;;;;28.59;46.52;101988.50;4825680;29;123493;-77
2023/08/22 09:56:19;;;;;;;;;;;;;;;28.64;46.39;101994.31;4832166;29;124875;-77
2023/08/22 09:58:46;;;;;;;;;;;;;;;28.66;46.41;101992.28;4830398;29;119267;-76
2023/08/22 10:01:16;;;;;;;;;;;;;;;28.67;46.41;101994.00;4829827;29;118852;-75
2023/08/22 10:03:44;;;;;;;;;;;;;;;28.67;46.42;102004.91;4827185;29;124995;-76
2023/08/22 10:06:12;;;;;;;;;;;;;;;28.65;46.32;101996.91;4826458;29;124022;-76
2023/08/22 10:08:40;;;;;;;;;;;;;;;28.65;46.22;101996.03;4820851;29;120298;-76
2023/08/22 10:11:10;;;;;;;;;;;;;;;28.64;46.25;101997.06;4830287;29;118950;-76
2023/08/22 10:13:37;;;;;;;;;;;;;;;28.61;46.14;102000.09;4828734;29;123958;-76
2023/08/22 10:16:04;;;;;;;;;;;;;;;28.58;46.21;102004.00;4823556;29;124603;-76
2023/08/22 10:18:31;;;;;;;;;;;;;;;28.55;46.08;102007.03;4844597;28;119421;-76
2023/08/22 10:20:58;;;;;;;;;;;;;;;28.58;46.51;101994.97;4828467;29;118649;-76
2023/08/22 10:23:44;;;;;;;;;;;;;;;28.66;46.36;101992.28;4828466;29;123664;-75
2023/08/22 10:26:11;;;;;;;;;;;;;;;28.75;46.27;101995.94;4829405;29;123744;-76
2023/08/22 10:28:44;;;;;;;;;;;;;;;28.78;46.36;101990.16;4830133;29;120214;-76
2023/08/22 10:31:11;;;;;;;;;;;;;;;28.77;46.01;101994.75;4830036;29;119364;-76
2023/08/22 10:33:38;;;;;;;;;;;;;;;28.79;46.19;101998.16;4826312;29;124131;-76
2023/08/22 10:36:15;;;;;;;;;;;;;;;28.80;46.29;101991.72;4827305;29;124221;-76
2023/08/22 10:38:52;;;;;;;;;;;;;;;28.82;45.94;101986.94;4838220;29;119944;-76
2023/08/22 10:41:38;;;;;;;;;;;;;;;28.84;46.03;101982.19;4828518;29;120779;-76
2023/08/22 10:44:04;;;;;;;;;;;;;;;28.85;46.09;101988.50;4827516;29;125097;-75
2023/08/22 10:47:07;;;;;;;;;;;;;;;28.88;46.09;101991.75;4828739;29;123975;-76
2023/08/22 10:49:37;;;;;;;;;;;;;;;28.99;46.20;101990.63;4809144;29;119689;-76
2023/08/22 10:52:11;;;;;;;;;;;;;;;29.12;46.33;101987.41;4828018;29;118587;-76
2023/08/22 10:54:57;;;;;;;;;;;;;;;29.24;46.12;101985.31;4830198;29;124272;-76
2023/08/22 10:57:24;;;;;;;;;;;;;;;29.36;46.08;101983.13;4842676;29;125128;-76
2023/08/22 10:59:58;;;;;;;;;;;;;;;29.45;46.09;101976.69;4838464;29;119422;-76
2023/08/22 11:02:29;;;;;;;;;;;;;;;29.55;46.00;101971.06;4828001;29;119180;-76
2023/08/22 11:04:56;;;;;;;;;;;;;;;29.61;45.78;101975.84;4826687;29;124781;-76
2023/08/22 11:07:24;;;;;;;;;;;;;;;29.58;45.56;101982.50;4827611;29;123785;-76
2023/08/22 11:09:51;;;;;;;;;;;;;;;29.59;45.66;101984.25;4828796;29;120919;-76
2023/08/22 11:12:19;;;;;;;;;;;;;;;29.62;45.72;101978.44;4844304;29;118349;-76
2023/08/22 11:14:49;;;;;;;;;;;;;;;29.68;45.59;101985.94;4829946;29;123896;-76
2023/08/22 11:17:17;;;;;;;;;;;;;;;29.73;45.65;101979.16;4830626;29;124683;-76
2023/08/22 11:19:44;;;;;;;;;;;;;;;29.77;45.60;101975.09;4828680;29;120458;-74
2023/08/22 11:22:12;;;;;;;;;;;;;;;29.85;45.73;101980.53;4845332;29;118860;-75
2023/08/22 11:24:46;;;;;;;;;;;;;;;29.93;45.57;101986.00;4827255;29;124138;-74
2023/08/22 11:27:13;;;;;;;;;;;;;;;29.97;45.28;101987.41;4828886;29;123880;-75
2023/08/22 11:29:42;;;;;;;;;;;;;;;29.94;45.30;101987.72;4829146;29;120699;-75
2023/08/22 11:32:21;;;;;;;;;;;;;;;29.91;45.14;101989.94;4824073;29;119113;-73
2023/08/22 11:34:49;;;;;;;;;;;;;;;29.85;45.05;101994.19;4832152;29;123927;-75
2023/08/22 11:37:16;;;;;;;;;;;;;;;29.80;45.16;101991.13;4836212;29;123192;-74
2023/08/22 11:39:47;;;;;;;;;;;;;;;29.74;45.09;101991.78;4844776;29;118579;-74
2023/08/22 11:42:15;;;;;;;;;;;;;;;29.70;44.97;102000.31;4829921;29;119138;-74
2023/08/22 11:45:00;;;;;;;;;;;;;;;29.64;44.89;101998.22;4823516;29;124232;-74
2023/08/22 11:47:37;;;;;;;;;;;;;;;29.55;44.95;101996.47;4825229;29;124959;-74
2023/08/22 11:50:05;;;;;;;;;;;;;;;29.50;44.91;102007.06;4827084;29;119207;-74
2023/08/22 11:52:32;;;;;;;;;;;;;;;29.45;45.01;101998.50;4832382;29;118572;-74
2023/08/22 11:55:03;;;;;;;;;;;;;;;29.43;44.96;102000.56;4831331;29;123879;-74
2023/08/22 11:57:30;;;;;;;;;;;;;;;29.44;44.89;101991.34;4824691;29;124562;-74
2023/08/22 12:00:01;;;;;;;;;;;;;;;29.46;45.04;101989.28;4831140;29;120146;-73
2023/08/22 12:02:41;;;;;;;;;;;;;;;29.49;44.98;101994.44;4830601;29;118963;-74
2023/08/22 12:05:28;;;;;;;;;;;;;;;29.48;44.99;101987.28;4826103;29;123586;-75
2023/08/22 12:07:55;;;;;;;;;;;;;;;29.43;44.81;101985.03;4821733;29;124678;-72
2023/08/22 12:10:22;;;;;;;;;;;;;;;29.40;44.85;101995.41;4839580;29;120650;-74
2023/08/22 12:12:49;;;;;;;;;;;;;;;29.38;44.95;101997.47;4829496;29;119806;-73
2023/08/22 12:15:19;;;;;;;;;;;;;;;29.38;44.80;101992.00;4823916;29;124130;-77
2023/08/22 12:17:46;;;;;;;;;;;;;;;29.37;44.72;101996.63;4827210;29;125520;-73
2023/08/22 12:20:13;;;;;;;;;;;;;;;29.34;44.77;102002.38;4828816;29;118520;-73
2023/08/22 12:22:40;;;;;;;;;;;;;;;29.29;44.73;102002.91;4832326;29;119280;-73
2023/08/22 12:25:07;;;;;;;;;;;;;;;29.28;44.67;102003.91;4827140;29;125297;-73
2023/08/22 12:27:34;;;;;;;;;;;;;;;29.28;44.67;102003.91;4821247;29;125186;-73
2023/08/22 12:30:02;;;;;;;;;;;;;;;29.29;44.94;101999.28;4825848;29;119189;-73
2023/08/22 12:32:29;;;;;;;;;;;;;;;29.29;44.75;101994.72;4827974;29;119361;-73
2023/08/22 12:34:58;;;;;;;;;;;;;;;29.26;44.51;101981.38;4824818;29;124445;-73